Terminal Aerodrome Forecast
Issued by NWS

Home | Current Version | Previous Version | Text Only | Print | Product List | Glossary On
Versions: 1 2 3 4 5 6 7 8 9 10 11 12 13 14
000
FTAK31 PAJN 282300
TAFAGY
TAF
PAGY 282333Z 2900/2924 02015G25KT P6SM FEW200
     FM290900 04010G20KT P6SM FEW200
     FM291500 04010KT P6SM SCT200
     FM292100 VRB05KT P6SM SCT200
      AMD LTD TO CLD VIS AND WIND=

USA.gov is the U.S. government's official web portal to all federal, state and local government web resources and services.